createdAt,value
2023-03-29T00:00:31.369Z,74.51
2023-03-29T00:02:33.573Z,74.45
2023-03-29T00:04:35.744Z,75.36
2023-03-29T00:06:38.544Z,75.07
2023-03-29T00:08:40.156Z,75.45
2023-03-29T00:10:42.384Z,75.35
2023-03-29T00:12:43.834Z,75.34
2023-03-29T00:14:45.347Z,74.83
2023-03-29T00:16:47.150Z,74.77
2023-03-29T00:18:48.720Z,75.62
2023-03-29T00:20:57.453Z,75.14
2023-03-29T00:22:58.949Z,75.23
2023-03-29T00:25:00.705Z,75.51
2023-03-29T00:27:02.622Z,75.56
2023-03-29T00:29:04.121Z,76.20
2023-03-29T00:31:08.218Z,75.94
2023-03-29T00:33:09.882Z,76.48
2023-03-29T00:35:11.545Z,76.33
2023-03-29T00:37:14.776Z,76.23
2023-03-29T00:39:20.859Z,76.08
2023-03-29T00:41:22.646Z,76.26
2023-03-29T00:43:24.236Z,76.77
2023-03-29T00:45:30.227Z,76.93
2023-03-29T00:47:45.507Z,76.42
2023-03-29T00:49:48.636Z,76.28
2023-03-29T00:51:50.434Z,76.34
2023-03-29T00:53:59.665Z,76.69
2023-03-29T00:56:19.970Z,77.11
2023-03-29T00:58:28.279Z,76.54
2023-03-29T01:00:38.867Z,76.76
2023-03-29T01:02:42.265Z,76.86
2023-03-29T01:04:52.005Z,77.30
2023-03-29T01:06:58.367Z,76.99
2023-03-29T01:09:08.037Z,77.47
2023-03-29T01:11:22.255Z,77.52
2023-03-29T01:13:33.719Z,76.62
2023-03-29T01:15:36.801Z,77.69
2023-03-29T01:17:40.447Z,76.92
2023-03-29T01:19:58.120Z,77.10
2023-03-29T01:22:18.594Z,76.64
2023-03-29T01:24:43.483Z,76.78
2023-03-29T01:26:53.838Z,77.74
2023-03-29T01:29:08.714Z,76.54
2023-03-29T01:31:19.764Z,76.64
2023-03-29T01:33:25.714Z,76.79
2023-03-29T01:35:32.664Z,76.80
2023-03-29T01:37:41.273Z,76.91
2023-03-29T01:39:42.868Z,77.66
2023-03-29T01:42:21.010Z,77.40
2023-03-29T01:44:51.947Z,76.32
2023-03-29T01:46:59.023Z,76.05
2023-03-29T01:49:12.197Z,75.73
2023-03-29T01:51:18.681Z,75.57
2023-03-29T01:53:26.517Z,75.70
2023-03-29T01:55:38.405Z,75.06
2023-03-29T01:57:43.647Z,76.14
2023-03-29T01:59:47.535Z,76.13
2023-03-29T02:01:52.900Z,76.24
2023-03-29T02:04:00.448Z,75.87
2023-03-29T02:06:03.618Z,76.69
2023-03-29T02:08:08.629Z,76.59
2023-03-29T02:10:12.244Z,76.60
2023-03-29T02:12:16.820Z,76.12
2023-03-29T02:14:18.385Z,76.55
2023-03-29T02:16:20.515Z,76.58
2023-03-29T02:18:23.625Z,76.45
2023-03-29T02:20:29.049Z,76.93
2023-03-29T02:22:41.697Z,76.56
2023-03-29T02:24:46.482Z,76.76
2023-03-29T02:26:48.785Z,76.98
2023-03-29T02:28:51.708Z,77.37
2023-03-29T02:31:05.598Z,77.66
2023-03-29T02:33:15.665Z,77.00
2023-03-29T02:35:28.910Z,77.38
2023-03-29T02:37:34.460Z,78.04
2023-03-29T02:39:37.078Z,78.30
2023-03-29T02:41:40.035Z,78.21
2023-03-29T02:43:43.439Z,78.17
2023-03-29T02:45:45.995Z,77.96
2023-03-29T02:47:53.462Z,78.20
2023-03-29T02:49:55.320Z,78.64
2023-03-29T02:52:01.501Z,79.13
2023-03-29T02:54:09.191Z,79.43
2023-03-29T02:56:10.779Z,79.53
2023-03-29T02:58:15.467Z,79.74
2023-03-29T03:00:18.964Z,79.91
2023-03-29T03:02:20.738Z,80.75
2023-03-29T03:04:22.795Z,81.08
2023-03-29T03:06:24.323Z,81.46
2023-03-29T03:08:26.183Z,81.85
2023-03-29T03:10:27.872Z,81.36
2023-03-29T03:12:29.559Z,82.53
2023-03-29T03:14:31.015Z,82.35
2023-03-29T03:16:32.569Z,82.17
2023-03-29T03:18:34.411Z,82.56
2023-03-29T03:20:36.216Z,82.74
2023-03-29T03:22:38.133Z,83.03
2023-03-29T03:24:39.584Z,83.40
2023-03-29T03:26:41.067Z,83.90
2023-03-29T03:28:43.140Z,84.53
2023-03-29T03:30:45.009Z,84.46
2023-03-29T03:32:46.753Z,84.51
2023-03-29T03:34:48.262Z,84.67
2023-03-29T03:36:50.632Z,85.19
2023-03-29T03:38:53.203Z,84.68
2023-03-29T03:40:59.564Z,84.72
2023-03-29T03:43:01.207Z,84.78
2023-03-29T03:45:02.912Z,85.37
2023-03-29T03:47:05.287Z,84.79
2023-03-29T03:49:06.838Z,85.58
2023-03-29T03:51:08.681Z,85.65
2023-03-29T03:53:10.135Z,85.57
2023-03-29T03:55:12.091Z,85.91
2023-03-29T03:57:13.980Z,86.52
2023-03-29T03:59:15.706Z,86.88
2023-03-29T04:01:18.073Z,86.59
2023-03-29T04:03:19.820Z,86.27
2023-03-29T04:05:21.447Z,87.01
2023-03-29T04:07:25.341Z,86.43
2023-03-29T04:09:26.883Z,86.41
2023-03-29T04:11:28.397Z,87.35
2023-03-29T04:13:30.150Z,87.46
2023-03-29T04:15:34.107Z,87.04
2023-03-29T04:17:35.932Z,86.71
2023-03-29T04:19:37.502Z,86.88
2023-03-29T04:21:39.007Z,87.43
2023-03-29T04:23:42.915Z,87.33
2023-03-29T04:25:44.429Z,87.72
2023-03-29T04:27:46.357Z,87.65
2023-03-29T04:29:48.923Z,87.59
2023-03-29T04:31:50.642Z,87.61
2023-03-29T04:33:52.166Z,87.98
2023-03-29T04:35:53.683Z,88.19
2023-03-29T04:37:55.305Z,88.13
2023-03-29T04:39:57.280Z,88.29
2023-03-29T04:41:58.800Z,88.67
2023-03-29T04:44:02.548Z,88.25
2023-03-29T04:46:07.222Z,88.40
2023-03-29T04:48:08.787Z,88.02
2023-03-29T04:50:11.055Z,88.57
2023-03-29T04:52:13.067Z,87.74
2023-03-29T04:54:14.509Z,88.56
2023-03-29T04:56:17.275Z,88.01
2023-03-29T04:58:22.110Z,88.05
2023-03-29T05:00:27.479Z,87.32
2023-03-29T05:02:32.263Z,88.25
2023-03-29T05:04:33.895Z,87.75
2023-03-29T05:06:36.793Z,87.75
2023-03-29T05:08:40.543Z,88.04
2023-03-29T05:10:43.592Z,88.31
2023-03-29T05:12:45.093Z,88.32
2023-03-29T05:14:46.728Z,87.78
2023-03-29T05:16:48.214Z,88.26
2023-03-29T05:18:49.994Z,87.62
2023-03-29T05:20:53.084Z,87.92
2023-03-29T05:22:54.971Z,88.15
2023-03-29T05:24:57.502Z,87.60
2023-03-29T05:26:59.375Z,87.80
2023-03-29T05:29:00.939Z,87.49
2023-03-29T05:31:05.778Z,87.60
2023-03-29T05:33:07.775Z,87.85
2023-03-29T05:35:11.303Z,88.11
2023-03-29T05:37:13.451Z,87.49
2023-03-29T05:39:15.442Z,87.80
2023-03-29T05:41:17.943Z,88.06
2023-03-29T05:43:19.401Z,87.09
2023-03-29T05:45:22.765Z,87.67
2023-03-29T05:47:24.781Z,87.27
2023-03-29T05:49:27.093Z,86.58
2023-03-29T05:51:28.589Z,86.78
2023-03-29T05:53:30.270Z,87.43
2023-03-29T05:55:31.732Z,87.69
2023-03-29T05:57:36.363Z,87.49
2023-03-29T05:59:38.510Z,87.46
2023-03-29T06:01:40.109Z,86.64
2023-03-29T06:03:42.240Z,87.00
2023-03-29T06:05:43.797Z,87.59
2023-03-29T06:07:45.704Z,86.90
2023-03-29T06:09:47.590Z,86.58
2023-03-29T06:11:49.099Z,87.65
2023-03-29T06:13:50.777Z,87.08
2023-03-29T06:15:52.248Z,87.97
2023-03-29T06:17:53.814Z,87.48
2023-03-29T06:19:55.436Z,87.62
2023-03-29T06:21:56.984Z,87.44
2023-03-29T06:23:59.096Z,88.01
2023-03-29T06:26:00.824Z,87.51
2023-03-29T06:28:02.590Z,87.93
2023-03-29T06:30:06.341Z,88.33
2023-03-29T06:32:07.803Z,88.62
2023-03-29T06:34:09.300Z,88.57
2023-03-29T06:36:11.560Z,88.76
2023-03-29T06:38:13.721Z,88.57
2023-03-29T06:40:27.392Z,87.99
2023-03-29T06:42:28.905Z,88.03
2023-03-29T06:44:30.407Z,88.58
2023-03-29T06:46:32.353Z,88.22
2023-03-29T06:48:34.000Z,88.24
2023-03-29T06:50:35.685Z,88.17
2023-03-29T06:52:37.162Z,87.67
2023-03-29T06:54:38.888Z,87.85
2023-03-29T06:56:40.956Z,87.45
2023-03-29T06:58:42.606Z,87.44
2023-03-29T07:00:44.111Z,87.36
2023-03-29T07:02:46.528Z,87.26
2023-03-29T07:04:48.704Z,87.24
2023-03-29T07:07:01.257Z,87.61
2023-03-29T07:09:06.592Z,87.17
2023-03-29T07:11:08.516Z,86.77
2023-03-29T07:13:14.234Z,86.46
2023-03-29T07:15:16.163Z,87.17
2023-03-29T07:17:18.529Z,86.61
2023-03-29T07:19:22.642Z,86.53
2023-03-29T07:21:24.128Z,86.32
2023-03-29T07:23:25.730Z,86.18
2023-03-29T07:25:29.992Z,85.84
2023-03-29T07:27:31.650Z,86.00
2023-03-29T07:29:33.417Z,85.83
2023-03-29T07:31:38.614Z,85.25
2023-03-29T07:33:40.680Z,84.94
2023-03-29T07:35:43.862Z,85.18
2023-03-29T07:37:46.340Z,85.56
2023-03-29T07:39:47.807Z,85.33
2023-03-29T07:41:49.343Z,84.65
2023-03-29T07:43:51.945Z,84.61
2023-03-29T07:45:53.636Z,84.65
2023-03-29T07:47:59.662Z,84.36
2023-03-29T07:50:01.590Z,84.43
2023-03-29T07:52:03.858Z,84.80
2023-03-29T07:54:06.485Z,84.63
2023-03-29T07:56:08.998Z,84.05
2023-03-29T07:58:10.597Z,83.95
2023-03-29T08:00:16.853Z,83.54
2023-03-29T08:02:19.556Z,83.65
2023-03-29T08:04:21.543Z,83.44
2023-03-29T08:06:23.134Z,83.91
2023-03-29T08:08:24.678Z,83.10
2023-03-29T08:10:26.757Z,83.38
2023-03-29T08:12:28.263Z,83.48
2023-03-29T08:14:30.334Z,83.82
2023-03-29T08:16:32.301Z,83.52
2023-03-29T08:18:35.000Z,83.52
2023-03-29T08:20:37.092Z,83.56
2023-03-29T08:22:38.955Z,83.08
2023-03-29T08:24:40.406Z,82.97
2023-03-29T08:26:42.143Z,82.75
2023-03-29T08:28:44.755Z,82.30
2023-03-29T08:30:46.299Z,82.19
2023-03-29T08:32:50.896Z,82.19
2023-03-29T08:34:53.033Z,81.82
2023-03-29T08:36:55.732Z,82.12
2023-03-29T08:38:57.412Z,81.60
2023-03-29T08:40:59.052Z,82.00
2023-03-29T08:43:12.458Z,82.42
2023-03-29T08:45:43.732Z,82.59
2023-03-29T08:47:59.074Z,82.93
2023-03-29T08:50:01.465Z,82.26
2023-03-29T08:52:06.438Z,82.42
2023-03-29T08:54:14.000Z,82.00
2023-03-29T08:56:21.345Z,81.81
2023-03-29T08:58:29.057Z,81.74
2023-03-29T09:00:44.336Z,81.47
2023-03-29T09:02:46.712Z,82.58
2023-03-29T09:04:48.986Z,81.84
2023-03-29T09:06:50.736Z,82.41
2023-03-29T09:08:52.647Z,82.26
2023-03-29T09:11:12.670Z,82.03
2023-03-29T09:13:23.181Z,82.07
2023-03-29T09:15:33.118Z,82.01
2023-03-29T09:17:38.923Z,81.86
2023-03-29T09:19:52.756Z,82.26
2023-03-29T09:22:22.436Z,82.37
2023-03-29T09:24:47.140Z,82.23
2023-03-29T09:26:54.604Z,82.20
2023-03-29T09:29:09.662Z,81.74
2023-03-29T09:31:18.974Z,82.10
2023-03-29T09:33:42.754Z,82.05
2023-03-29T09:35:53.306Z,82.36
2023-03-29T09:37:55.571Z,83.10
2023-03-29T09:39:57.919Z,83.34
2023-03-29T09:42:03.774Z,83.28
2023-03-29T09:44:24.221Z,82.98
2023-03-29T09:46:39.795Z,82.51
2023-03-29T09:48:44.032Z,83.89
2023-03-29T09:50:51.397Z,83.44
2023-03-29T09:52:52.872Z,83.98
2023-03-29T09:54:54.446Z,84.35
2023-03-29T09:56:56.003Z,84.65
2023-03-29T09:58:57.510Z,84.56
2023-03-29T10:01:01.644Z,84.56
2023-03-29T10:03:03.642Z,85.00
2023-03-29T10:05:07.443Z,85.07
2023-03-29T10:07:16.825Z,85.45
2023-03-29T10:09:24.290Z,84.58
2023-03-29T10:11:30.714Z,84.75
2023-03-29T10:13:35.157Z,85.12
2023-03-29T10:15:37.066Z,84.75
2023-03-29T10:17:40.852Z,85.37
2023-03-29T10:19:51.195Z,85.15
2023-03-29T10:21:55.066Z,84.83
2023-03-29T10:23:59.624Z,85.02
2023-03-29T10:26:04.326Z,85.19
2023-03-29T10:28:17.583Z,85.97
2023-03-29T10:30:23.300Z,86.72
2023-03-29T10:32:35.234Z,87.27
2023-03-29T10:34:37.029Z,87.99
2023-03-29T10:36:42.096Z,88.05
2023-03-29T10:38:44.455Z,88.55
2023-03-29T10:40:48.765Z,90.27
2023-03-29T10:42:52.033Z,90.17
2023-03-29T10:44:57.112Z,90.09
2023-03-29T10:47:20.197Z,90.76
2023-03-29T10:49:23.371Z,90.66
2023-03-29T10:51:27.707Z,90.28
2023-03-29T10:53:32.596Z,90.33
2023-03-29T10:55:43.840Z,90.26
2023-03-29T10:58:11.214Z,89.90
2023-03-29T11:00:27.065Z,89.42
2023-03-29T11:03:01.454Z,88.10
2023-03-29T11:05:39.817Z,87.47
2023-03-29T11:07:53.614Z,86.50
2023-03-29T11:10:13.466Z,85.87
2023-03-29T11:12:50.187Z,84.90
2023-03-29T11:15:22.671Z,83.56
2023-03-29T11:17:33.328Z,84.52
2023-03-29T11:20:13.022Z,83.62
2023-03-29T11:22:33.013Z,83.41
2023-03-29T11:25:08.151Z,83.29
2023-03-29T11:27:25.260Z,84.00
2023-03-29T11:29:43.431Z,83.80
2023-03-29T11:32:24.405Z,83.18
2023-03-29T11:34:47.458Z,83.48
2023-03-29T11:37:25.312Z,82.21
2023-03-29T11:39:26.723Z,79.53
2023-03-29T11:41:34.466Z,79.20
2023-03-29T11:43:42.891Z,79.06
2023-03-29T11:45:54.962Z,79.57
2023-03-29T11:48:02.084Z,79.73
2023-03-29T11:50:19.517Z,79.99
2023-03-29T11:52:29.747Z,79.58
2023-03-29T11:54:38.243Z,78.79
2023-03-29T11:56:56.200Z,79.20
2023-03-29T11:59:11.681Z,79.56
2023-03-29T12:01:22.937Z,79.05
2023-03-29T12:03:38.624Z,78.87
2023-03-29T12:05:47.938Z,77.65
2023-03-29T12:07:59.316Z,77.18
2023-03-29T12:10:16.638Z,76.61
2023-03-29T12:12:38.229Z,76.49
2023-03-29T12:14:50.896Z,77.16
2023-03-29T12:17:02.216Z,77.40
2023-03-29T12:19:28.894Z,75.72
2023-03-29T12:21:30.970Z,75.25
2023-03-29T12:23:33.094Z,75.27
2023-03-29T12:25:40.840Z,75.16
2023-03-29T12:27:52.428Z,75.28
2023-03-29T12:30:16.992Z,74.98
2023-03-29T12:32:43.495Z,75.40
2023-03-29T12:34:54.136Z,75.32
2023-03-29T12:37:14.131Z,74.73
2023-03-29T12:39:18.803Z,75.53
2023-03-29T12:41:23.665Z,74.62
2023-03-29T12:43:27.426Z,74.63
2023-03-29T12:45:39.570Z,74.53
2023-03-29T12:47:45.506Z,74.17
2023-03-29T12:49:47.683Z,73.65
2023-03-29T12:51:49.254Z,72.69
2023-03-29T12:53:53.521Z,73.62
2023-03-29T12:56:00.888Z,74.57
2023-03-29T12:58:20.991Z,72.70
2023-03-29T13:00:27.318Z,73.21
2023-03-29T13:02:37.006Z,72.75
2023-03-29T13:04:56.867Z,72.89
2023-03-29T13:07:04.275Z,73.12
2023-03-29T13:09:29.738Z,72.91
2023-03-29T13:11:40.728Z,72.56
2023-03-29T13:13:43.629Z,72.30
2023-03-29T13:15:46.167Z,72.36
2023-03-29T13:18:16.677Z,71.90
2023-03-29T13:20:42.876Z,72.76
2023-03-29T13:22:53.347Z,71.34
2023-03-29T13:25:02.191Z,68.70
2023-03-29T13:27:15.784Z,68.16
2023-03-29T13:29:49.426Z,67.89
2023-03-29T13:31:53.860Z,67.30
2023-03-29T13:34:07.373Z,67.63
2023-03-29T13:36:19.828Z,67.76
2023-03-29T13:38:27.696Z,68.89
2023-03-29T13:40:44.172Z,68.35
2023-03-29T13:42:58.032Z,68.47
2023-03-29T13:45:23.184Z,68.66
2023-03-29T13:47:32.466Z,69.77
2023-03-29T13:49:35.545Z,70.20
2023-03-29T13:51:42.436Z,70.17
2023-03-29T13:53:51.849Z,69.96
2023-03-29T13:55:54.759Z,70.93
2023-03-29T13:58:14.642Z,70.07
2023-03-29T14:00:27.245Z,70.12
2023-03-29T14:02:37.726Z,69.71
2023-03-29T14:04:46.145Z,70.29
2023-03-29T14:06:53.096Z,70.54
2023-03-29T14:08:55.873Z,70.75
2023-03-29T14:11:02.090Z,70.95
2023-03-29T14:13:04.526Z,70.26
2023-03-29T14:15:07.119Z,70.04
2023-03-29T14:17:16.617Z,70.68
2023-03-29T14:19:38.604Z,69.83
2023-03-29T14:21:41.652Z,69.86
2023-03-29T14:23:45.445Z,69.64
2023-03-29T14:25:47.270Z,70.02
2023-03-29T14:27:49.101Z,70.69
2023-03-29T14:29:53.202Z,71.14
2023-03-29T14:31:54.894Z,71.69
2023-03-29T14:33:59.906Z,72.06
2023-03-29T14:36:04.159Z,72.27
2023-03-29T14:38:06.262Z,72.29
2023-03-29T14:40:18.891Z,72.00
2023-03-29T14:42:26.643Z,72.95
2023-03-29T14:44:33.067Z,72.75
2023-03-29T14:46:36.445Z,71.77
2023-03-29T14:48:38.565Z,72.31
2023-03-29T14:50:41.259Z,71.65
2023-03-29T14:52:44.429Z,72.05
2023-03-29T14:54:52.503Z,72.08
2023-03-29T14:56:54.790Z,71.99
2023-03-29T14:58:57.179Z,72.58
2023-03-29T15:01:05.381Z,72.52
2023-03-29T15:03:14.019Z,73.35
2023-03-29T15:05:25.018Z,73.97
2023-03-29T15:07:28.368Z,74.30
2023-03-29T15:09:34.000Z,74.25
2023-03-29T15:11:35.938Z,74.93
2023-03-29T15:13:41.624Z,74.85
2023-03-29T15:15:43.234Z,75.36
2023-03-29T15:17:52.258Z,75.78
2023-03-29T15:19:59.220Z,75.59
2023-03-29T15:22:10.112Z,75.45
2023-03-29T15:24:33.435Z,76.31
2023-03-29T15:26:36.723Z,76.00
2023-03-29T15:28:47.651Z,75.71
2023-03-29T15:30:57.266Z,75.95
2023-03-29T15:33:16.322Z,75.73
2023-03-29T15:35:23.936Z,76.55
2023-03-29T15:37:26.279Z,76.79
2023-03-29T15:39:29.292Z,76.86
2023-03-29T15:41:30.948Z,77.08
2023-03-29T15:43:32.524Z,77.48
2023-03-29T15:45:34.056Z,77.83
2023-03-29T15:47:35.578Z,77.59
2023-03-29T15:49:37.069Z,77.79
2023-03-29T15:51:38.625Z,77.46
2023-03-29T15:53:40.571Z,77.28
2023-03-29T15:55:45.318Z,78.56
2023-03-29T15:57:48.389Z,78.11
2023-03-29T15:59:49.957Z,77.83
2023-03-29T16:01:51.694Z,78.12
2023-03-29T16:03:53.239Z,78.32
2023-03-29T16:05:56.869Z,78.82
2023-03-29T16:07:58.357Z,78.71
2023-03-29T16:09:59.875Z,79.07
2023-03-29T16:12:01.361Z,79.20
2023-03-29T16:14:03.209Z,78.81
2023-03-29T16:16:05.322Z,79.62
2023-03-29T16:18:07.189Z,80.02
2023-03-29T16:20:10.209Z,79.73
2023-03-29T16:22:11.852Z,79.82
2023-03-29T16:24:19.664Z,80.16
2023-03-29T16:26:22.251Z,80.87
2023-03-29T16:28:23.851Z,80.71
2023-03-29T16:30:25.303Z,81.11
2023-03-29T16:32:26.904Z,81.24
2023-03-29T16:34:28.443Z,81.40
2023-03-29T16:36:30.948Z,81.57
2023-03-29T16:38:34.089Z,81.79
2023-03-29T16:40:36.585Z,82.15
2023-03-29T16:42:38.944Z,82.13
2023-03-29T16:44:40.624Z,82.24
2023-03-29T16:46:42.241Z,82.81
2023-03-29T16:48:43.733Z,82.60
2023-03-29T16:50:49.438Z,82.80
2023-03-29T16:52:53.734Z,83.45
2023-03-29T16:54:55.186Z,83.25
2023-03-29T16:56:57.674Z,83.40
2023-03-29T16:58:59.401Z,83.65
2023-03-29T17:01:16.007Z,83.74
2023-03-29T17:03:18.184Z,83.29
2023-03-29T17:05:19.737Z,82.89
2023-03-29T17:07:21.219Z,82.81
2023-03-29T17:09:22.683Z,82.86
2023-03-29T17:11:24.279Z,83.24
2023-03-29T17:13:26.149Z,83.49
2023-03-29T17:15:27.683Z,84.05
2023-03-29T17:17:29.220Z,84.16
2023-03-29T17:19:30.781Z,84.21
2023-03-29T17:21:32.245Z,84.46
2023-03-29T17:23:33.845Z,84.43
2023-03-29T17:25:35.516Z,84.31
2023-03-29T17:27:37.960Z,84.38
2023-03-29T17:29:39.483Z,84.37
2023-03-29T17:31:47.722Z,84.97
2023-03-29T17:33:52.006Z,85.31
2023-03-29T17:35:53.720Z,85.71
2023-03-29T17:37:55.833Z,85.97
2023-03-29T17:39:57.311Z,85.96
2023-03-29T17:41:58.849Z,86.23
2023-03-29T17:44:01.157Z,86.37
2023-03-29T17:46:02.991Z,86.69
2023-03-29T17:48:06.423Z,86.67
2023-03-29T17:50:10.879Z,86.81
2023-03-29T17:52:12.358Z,87.06
2023-03-29T17:54:13.848Z,87.35
2023-03-29T17:56:16.124Z,87.61
2023-03-29T17:58:17.858Z,87.79
2023-03-29T18:00:20.052Z,87.84
2023-03-29T18:02:23.907Z,88.10
2023-03-29T18:04:25.526Z,88.17
2023-03-29T18:06:27.051Z,87.97
2023-03-29T18:08:28.537Z,88.52
2023-03-29T18:10:30.302Z,87.88
2023-03-29T18:12:31.785Z,88.54
2023-03-29T18:14:33.440Z,88.60
2023-03-29T18:16:35.138Z,88.46
2023-03-29T18:18:37.451Z,88.50
2023-03-29T18:20:38.932Z,88.93
2023-03-29T18:22:44.084Z,89.14
2023-03-29T18:24:46.650Z,89.28
2023-03-29T18:26:48.201Z,89.54
2023-03-29T18:28:50.697Z,89.16
2023-03-29T18:30:52.428Z,89.00
2023-03-29T18:32:53.900Z,89.23
2023-03-29T18:34:55.719Z,88.89
2023-03-29T18:36:57.699Z,88.66
2023-03-29T18:39:05.564Z,88.64
2023-03-29T18:41:08.672Z,88.69
2023-03-29T18:43:10.328Z,88.42
2023-03-29T18:45:12.214Z,88.54
2023-03-29T18:47:13.741Z,88.20
2023-03-29T18:49:15.252Z,88.21
2023-03-29T18:51:16.771Z,88.41
2023-03-29T18:53:18.966Z,88.56
2023-03-29T18:55:20.428Z,88.57
2023-03-29T18:57:21.958Z,88.88
2023-03-29T18:59:23.617Z,88.90
2023-03-29T19:01:25.277Z,89.32
2023-03-29T19:03:27.529Z,89.30
2023-03-29T19:05:29.278Z,89.92
2023-03-29T19:07:30.784Z,90.27
2023-03-29T19:09:32.458Z,90.79
2023-03-29T19:11:35.899Z,91.07
2023-03-29T19:13:37.501Z,92.19
2023-03-29T19:15:40.438Z,93.39
2023-03-29T19:17:42.019Z,93.74
2023-03-29T19:19:43.504Z,93.96
2023-03-29T19:21:49.517Z,94.54
2023-03-29T19:23:52.863Z,94.76
2023-03-29T19:26:02.765Z,94.97
2023-03-29T19:28:04.929Z,95.32
2023-03-29T19:30:07.133Z,95.15
2023-03-29T19:32:08.972Z,94.76
2023-03-29T19:34:11.110Z,94.06
2023-03-29T19:36:12.857Z,93.80
2023-03-29T19:38:14.361Z,93.88
2023-03-29T19:40:15.998Z,93.50
2023-03-29T19:42:17.524Z,93.60
2023-03-29T19:44:20.058Z,92.92
2023-03-29T19:46:21.788Z,93.04
2023-03-29T19:48:24.046Z,92.82
2023-03-29T19:50:26.813Z,92.77
2023-03-29T19:52:29.030Z,93.06
2023-03-29T19:54:30.943Z,92.98
2023-03-29T19:56:33.184Z,92.81
2023-03-29T19:58:34.649Z,92.81
2023-03-29T20:00:38.690Z,93.20
2023-03-29T20:02:42.384Z,92.50
2023-03-29T20:04:44.394Z,92.58
2023-03-29T20:06:46.286Z,92.40
2023-03-29T20:08:47.948Z,91.94
2023-03-29T20:10:49.448Z,92.22
2023-03-29T20:12:51.039Z,92.10
2023-03-29T20:14:52.495Z,92.07
2023-03-29T20:16:54.659Z,92.26
2023-03-29T20:18:56.219Z,92.42
2023-03-29T20:20:57.761Z,92.13
2023-03-29T20:23:04.678Z,91.89
2023-03-29T20:25:06.994Z,91.90
2023-03-29T20:27:08.644Z,91.75
2023-03-29T20:29:10.110Z,91.70
2023-03-29T20:31:11.819Z,91.85
2023-03-29T20:33:13.389Z,92.06
2023-03-29T20:35:15.362Z,91.91
2023-03-29T20:37:16.833Z,92.37
2023-03-29T20:39:18.806Z,92.22
2023-03-29T20:41:20.625Z,92.09
2023-03-29T20:43:22.199Z,92.33
2023-03-29T20:45:23.766Z,92.15
2023-03-29T20:47:27.483Z,91.90
2023-03-29T20:49:37.381Z,91.95
2023-03-29T20:51:40.347Z,92.07
2023-03-29T20:53:42.893Z,92.55
2023-03-29T20:55:44.411Z,93.21
2023-03-29T20:57:45.877Z,93.30
2023-03-29T20:59:49.104Z,93.16
2023-03-29T21:01:52.014Z,93.39
2023-03-29T21:03:53.687Z,92.99
2023-03-29T21:05:55.283Z,93.06
2023-03-29T21:07:57.292Z,92.53
2023-03-29T21:10:01.069Z,93.02
2023-03-29T21:12:02.954Z,92.73
2023-03-29T21:14:04.657Z,92.61
2023-03-29T21:16:06.945Z,92.68
2023-03-29T21:18:08.822Z,92.85
2023-03-29T21:20:11.307Z,92.51
2023-03-29T21:22:15.707Z,92.75
2023-03-29T21:24:17.256Z,92.66
2023-03-29T21:26:18.835Z,92.88
2023-03-29T21:28:20.550Z,92.51
2023-03-29T21:30:22.038Z,93.28
2023-03-29T21:32:23.619Z,93.16
2023-03-29T21:34:25.337Z,93.63
2023-03-29T21:36:27.041Z,94.02
2023-03-29T21:38:28.773Z,94.78
2023-03-29T21:40:30.430Z,94.78
2023-03-29T21:42:35.369Z,94.48
2023-03-29T21:44:36.864Z,94.89
2023-03-29T21:46:38.453Z,94.76
2023-03-29T21:48:41.721Z,94.77
2023-03-29T21:50:43.511Z,95.16
2023-03-29T21:52:44.975Z,95.19
2023-03-29T21:54:46.448Z,94.35
2023-03-29T21:56:47.930Z,94.80
2023-03-29T21:58:49.530Z,94.10
2023-03-29T22:00:51.461Z,93.54
2023-03-29T22:02:52.976Z,93.48
2023-03-29T22:04:54.493Z,94.14
2023-03-29T22:06:56.028Z,93.69
2023-03-29T22:08:57.506Z,93.80
2023-03-29T22:11:08.267Z,93.48
2023-03-29T22:13:09.949Z,93.93
2023-03-29T22:15:12.820Z,93.71
2023-03-29T22:17:15.914Z,93.69
2023-03-29T22:19:17.401Z,93.94
2023-03-29T22:21:24.748Z,93.52
2023-03-29T22:23:26.274Z,93.53
2023-03-29T22:25:27.737Z,93.52
2023-03-29T22:27:29.289Z,93.49
2023-03-29T22:29:30.791Z,93.46
2023-03-29T22:31:32.631Z,93.50
2023-03-29T22:33:35.565Z,93.63
2023-03-29T22:35:37.080Z,93.64
2023-03-29T22:37:43.218Z,93.38
2023-03-29T22:39:44.744Z,93.05
2023-03-29T22:41:46.691Z,93.10
2023-03-29T22:43:48.304Z,93.45
2023-03-29T22:45:49.821Z,93.85
2023-03-29T22:47:51.596Z,93.51
2023-03-29T22:49:53.085Z,93.26
2023-03-29T22:51:54.568Z,93.11
2023-03-29T22:53:56.149Z,93.43
2023-03-29T22:55:58.134Z,93.38
2023-03-29T22:57:59.635Z,92.95
2023-03-29T23:00:01.167Z,93.47
2023-03-29T23:02:02.732Z,93.68
2023-03-29T23:04:04.701Z,93.63
2023-03-29T23:06:06.638Z,93.44
2023-03-29T23:08:08.140Z,93.07
2023-03-29T23:10:10.622Z,93.27
2023-03-29T23:12:12.202Z,93.75
2023-03-29T23:14:14.808Z,93.27
2023-03-29T23:16:16.721Z,93.72
2023-03-29T23:18:21.125Z,93.51
2023-03-29T23:20:22.590Z,93.38
2023-03-29T23:22:24.403Z,93.61
2023-03-29T23:24:25.920Z,94.29
2023-03-29T23:26:27.839Z,94.24
2023-03-29T23:28:34.296Z,95.08
2023-03-29T23:30:37.098Z,95.35
2023-03-29T23:32:38.614Z,95.74
2023-03-29T23:34:40.342Z,95.53
2023-03-29T23:36:41.820Z,96.83
2023-03-29T23:38:46.082Z,96.85
2023-03-29T23:41:00.368Z,97.06
2023-03-29T23:43:04.128Z,96.81
2023-03-29T23:45:11.304Z,97.65
2023-03-29T23:47:12.757Z,96.81
2023-03-29T23:49:14.656Z,97.66
2023-03-29T23:51:23.043Z,97.44
2023-03-29T23:53:25.448Z,96.96
2023-03-29T23:55:27.274Z,96.88
2023-03-29T23:57:28.920Z,96.24
2023-03-29T23:59:31.133Z,96.38
